El Palomar, Argentina

2:46 PM ART on August 31, 2015 (GMT -0300)
Ramos Mejia | | Change Station
CLOSE
Current Station
Personal Weather Station
Location: Buenos Aires, CIUDAD AUTONOMA DE BUENOS AIRES
Elevation: 92 ft
Nearby Weather Stations

Elev 92 ft 34.64 °S, 58.58 °W | Updated 29 seconds ago

Clear
Clear
75.9 °F
Feels Like 78 °F
N
0.0
Wind Variable Wind from North
Gusts 0.0 mph

Today
High -- | Low -- °F
--% Chance of Precip.
Yesterday
High -- | Low -- °F
Precip. -- in
7:14 AM 6:35 PM
Waning Gibbous, 94% visible
Pressure 29.98 in
Visibility 5.6 miles
Clouds
Heat Index 78 °F
Dew Point 52 °F
Humidity 43%
Rainfall 0.00 in
Snow Depth Not available.
UV Not available.
Pollen Not available.
Air Quality Not available.
Flu Activity Not available.
METAR SADF 311700Z 16015G25KT 9000 NSC 25/11 Q1015
Pressure 29.98 in
Visibility 5.6 miles
Clouds
Heat Index 78 °F
Dew Point 52 °F
Humidity 43%
Rainfall 0.00 in
Snow Depth Not available.
UV Not available.
Pollen Not available.
Air Quality Not available.
Flu Activity Not available.
METAR SADF 311700Z 16015G25KT 9000 NSC 25/11 Q1015

10-Day Weather Forecast

×

Almanac

Astronomy

Aug. 31, 2015 Rise Set
Actual Time
Civil Twilight
Nautical Twilight
Astronomical Twilight
Moon
Length of Visible Light
Length of Day
Tomorrow will be .
, % of the Moon is Illuminated

Today's Extremes

Country Highs Country Lows

Community

WunderPhotos

Upload Photos

1,851,328 photos uploaded!

WunderBlogs® & News

Nearby

Air Quality

  Air Quality AQ Index Pollutant
Not available.

Snow Depth

Station Depth Elevation

Earthquake Activity

City Distance Mag. Time & Date
Minimum magnitude displayed is 2.5.

Coastal Water Temperatures

Place Temperature

Stations

Nearby Weather Stations

Station Location Temp. Windchill Dew Point Humidity Wind Precip. Elev Updated Type